sensor_id;sensor_type;location;lat;lon;timestamp;P1;durP1;ratioP1;P2;durP2;ratioP2
26690;SDS011;14307;51.718;8.938;2023-04-16T00:01:26;150.15;;;76.20;;
26690;SDS011;14307;51.718;8.938;2023-04-16T00:03:53;137.68;;;68.93;;
26690;SDS011;14307;51.718;8.938;2023-04-16T00:06:21;137.13;;;70.75;;
26690;SDS011;14307;51.718;8.938;2023-04-16T00:08:48;134.55;;;71.43;;
26690;SDS011;14307;51.718;8.938;2023-04-16T00:11:17;145.30;;;74.28;;
26690;SDS011;14307;51.718;8.938;2023-04-16T00:13:43;160.73;;;78.38;;
26690;SDS011;14307;51.718;8.938;2023-04-16T00:16:10;155.02;;;74.95;;
26690;SDS011;14307;51.718;8.938;2023-04-16T00:18:37;161.13;;;79.25;;
26690;SDS011;14307;51.718;8.938;2023-04-16T00:21:04;171.65;;;78.88;;
26690;SDS011;14307;51.718;8.938;2023-04-16T00:23:32;171.30;;;78.05;;
26690;SDS011;14307;51.718;8.938;2023-04-16T00:25:59;169.15;;;78.35;;
26690;SDS011;14307;51.718;8.938;2023-04-16T00:28:26;176.60;;;81.93;;
26690;SDS011;14307;51.718;8.938;2023-04-16T00:30:53;170.57;;;81.00;;
26690;SDS011;14307;51.718;8.938;2023-04-16T00:33:20;179.02;;;82.50;;
26690;SDS011;14307;51.718;8.938;2023-04-16T00:35:47;183.00;;;84.55;;
26690;SDS011;14307;51.718;8.938;2023-04-16T00:38:14;178.90;;;83.30;;
26690;SDS011;14307;51.718;8.938;2023-04-16T00:40:41;173.10;;;78.75;;
26690;SDS011;14307;51.718;8.938;2023-04-16T00:43:08;188.73;;;84.45;;
26690;SDS011;14307;51.718;8.938;2023-04-16T00:45:34;183.07;;;85.13;;
26690;SDS011;14307;51.718;8.938;2023-04-16T00:48:02;189.65;;;83.95;;
26690;SDS011;14307;51.718;8.938;2023-04-16T00:50:29;207.07;;;88.78;;
26690;SDS011;14307;51.718;8.938;2023-04-16T00:52:56;214.20;;;92.03;;
26690;SDS011;14307;51.718;8.938;2023-04-16T00:55:23;217.38;;;91.55;;
26690;SDS011;14307;51.718;8.938;2023-04-16T00:57:50;247.25;;;94.50;;
26690;SDS011;14307;51.718;8.938;2023-04-16T01:00:17;232.30;;;94.28;;
26690;SDS011;14307;51.718;8.938;2023-04-16T01:02:44;239.73;;;95.57;;
26690;SDS011;14307;51.718;8.938;2023-04-16T01:05:10;239.30;;;94.10;;
26690;SDS011;14307;51.718;8.938;2023-04-16T01:07:37;246.52;;;98.72;;
26690;SDS011;14307;51.718;8.938;2023-04-16T01:10:04;269.02;;;102.93;;
26690;SDS011;14307;51.718;8.938;2023-04-16T01:12:31;272.77;;;102.15;;
26690;SDS011;14307;51.718;8.938;2023-04-16T01:14:58;246.82;;;97.55;;
26690;SDS011;14307;51.718;8.938;2023-04-16T01:17:24;224.00;;;94.03;;
26690;SDS011;14307;51.718;8.938;2023-04-16T01:19:51;238.90;;;99.13;;
26690;SDS011;14307;51.718;8.938;2023-04-16T01:22:18;262.23;;;101.15;;
26690;SDS011;14307;51.718;8.938;2023-04-16T01:24:44;242.50;;;97.80;;
26690;SDS011;14307;51.718;8.938;2023-04-16T01:27:11;228.88;;;95.97;;
26690;SDS011;14307;51.718;8.938;2023-04-16T01:29:38;229.82;;;93.90;;
26690;SDS011;14307;51.718;8.938;2023-04-16T01:32:05;212.93;;;92.28;;
26690;SDS011;14307;51.718;8.938;2023-04-16T01:34:35;220.88;;;95.15;;
26690;SDS011;14307;51.718;8.938;2023-04-16T01:37:02;211.65;;;93.00;;
26690;SDS011;14307;51.718;8.938;2023-04-16T01:39:29;215.15;;;96.10;;
26690;SDS011;14307;51.718;8.938;2023-04-16T01:41:56;198.13;;;90.57;;
26690;SDS011;14307;51.718;8.938;2023-04-16T01:44:23;195.93;;;91.90;;
26690;SDS011;14307;51.718;8.938;2023-04-16T01:46:50;203.07;;;93.30;;
26690;SDS011;14307;51.718;8.938;2023-04-16T01:49:17;188.38;;;87.07;;
26690;SDS011;14307;51.718;8.938;2023-04-16T01:51:44;185.30;;;83.78;;
26690;SDS011;14307;51.718;8.938;2023-04-16T01:54:11;194.13;;;88.15;;
26690;SDS011;14307;51.718;8.938;2023-04-16T01:56:38;191.73;;;89.07;;
26690;SDS011;14307;51.718;8.938;2023-04-16T01:59:05;197.77;;;89.75;;
26690;SDS011;14307;51.718;8.938;2023-04-16T02:01:36;196.43;;;93.07;;
26690;SDS011;14307;51.718;8.938;2023-04-16T02:04:03;212.88;;;94.63;;
26690;SDS011;14307;51.718;8.938;2023-04-16T02:06:30;202.95;;;90.45;;
26690;SDS011;14307;51.718;8.938;2023-04-16T02:08:57;208.88;;;92.78;;
26690;SDS011;14307;51.718;8.938;2023-04-16T02:11:24;205.63;;;91.68;;
26690;SDS011;14307;51.718;8.938;2023-04-16T02:13:52;178.68;;;84.28;;
26690;SDS011;14307;51.718;8.938;2023-04-16T02:16:19;172.13;;;84.20;;
26690;SDS011;14307;51.718;8.938;2023-04-16T02:18:51;164.88;;;81.45;;
26690;SDS011;14307;51.718;8.938;2023-04-16T02:21:20;168.85;;;82.43;;
26690;SDS011;14307;51.718;8.938;2023-04-16T02:23:47;174.98;;;82.47;;
26690;SDS011;14307;51.718;8.938;2023-04-16T02:26:22;153.40;;;77.10;;
26690;SDS011;14307;51.718;8.938;2023-04-16T02:28:49;165.30;;;83.93;;
26690;SDS011;14307;51.718;8.938;2023-04-16T02:31:18;158.77;;;78.25;;
26690;SDS011;14307;51.718;8.938;2023-04-16T02:33:46;162.13;;;81.03;;
26690;SDS011;14307;51.718;8.938;2023-04-16T02:36:13;169.93;;;85.20;;
26690;SDS011;14307;51.718;8.938;2023-04-16T02:38:40;166.75;;;82.28;;
26690;SDS011;14307;51.718;8.938;2023-04-16T02:41:07;157.25;;;81.10;;
26690;SDS011;14307;51.718;8.938;2023-04-16T02:43:34;169.10;;;84.20;;
26690;SDS011;14307;51.718;8.938;2023-04-16T02:46:00;177.32;;;85.70;;
26690;SDS011;14307;51.718;8.938;2023-04-16T02:48:27;175.50;;;85.07;;
26690;SDS011;14307;51.718;8.938;2023-04-16T02:50:54;182.55;;;83.95;;
26690;SDS011;14307;51.718;8.938;2023-04-16T02:53:21;177.25;;;85.28;;
26690;SDS011;14307;51.718;8.938;2023-04-16T02:55:51;191.63;;;89.68;;
26690;SDS011;14307;51.718;8.938;2023-04-16T02:58:22;187.45;;;85.38;;
26690;SDS011;14307;51.718;8.938;2023-04-16T03:00:51;198.18;;;86.88;;
26690;SDS011;14307;51.718;8.938;2023-04-16T03:03:18;207.00;;;91.88;;
26690;SDS011;14307;51.718;8.938;2023-04-16T03:05:46;209.60;;;95.15;;
26690;SDS011;14307;51.718;8.938;2023-04-16T03:08:14;221.57;;;94.18;;
26690;SDS011;14307;51.718;8.938;2023-04-16T03:10:41;213.02;;;93.63;;
26690;SDS011;14307;51.718;8.938;2023-04-16T03:13:08;194.25;;;86.25;;
26690;SDS011;14307;51.718;8.938;2023-04-16T03:15:35;198.40;;;91.55;;
26690;SDS011;14307;51.718;8.938;2023-04-16T03:18:02;199.98;;;91.95;;
26690;SDS011;14307;51.718;8.938;2023-04-16T03:20:29;188.80;;;89.35;;
26690;SDS011;14307;51.718;8.938;2023-04-16T03:22:55;200.52;;;93.15;;
26690;SDS011;14307;51.718;8.938;2023-04-16T03:25:22;190.18;;;89.78;;
26690;SDS011;14307;51.718;8.938;2023-04-16T03:27:49;176.57;;;83.13;;
26690;SDS011;14307;51.718;8.938;2023-04-16T03:30:16;177.07;;;86.55;;
26690;SDS011;14307;51.718;8.938;2023-04-16T03:32:43;174.70;;;84.30;;
26690;SDS011;14307;51.718;8.938;2023-04-16T03:35:10;176.15;;;84.57;;
26690;SDS011;14307;51.718;8.938;2023-04-16T03:37:37;165.23;;;82.38;;
26690;SDS011;14307;51.718;8.938;2023-04-16T03:40:04;178.15;;;85.18;;
26690;SDS011;14307;51.718;8.938;2023-04-16T03:42:32;174.55;;;80.88;;
26690;SDS011;14307;51.718;8.938;2023-04-16T03:44:59;182.38;;;84.30;;
26690;SDS011;14307;51.718;8.938;2023-04-16T03:47:26;181.10;;;83.38;;
26690;SDS011;14307;51.718;8.938;2023-04-16T03:49:57;192.40;;;87.70;;
26690;SDS011;14307;51.718;8.938;2023-04-16T03:52:25;191.57;;;87.20;;
26690;SDS011;14307;51.718;8.938;2023-04-16T03:54:53;180.93;;;85.13;;
26690;SDS011;14307;51.718;8.938;2023-04-16T03:57:24;185.07;;;85.28;;
26690;SDS011;14307;51.718;8.938;2023-04-16T03:59:54;185.15;;;86.15;;
26690;SDS011;14307;51.718;8.938;2023-04-16T04:02:22;182.32;;;84.10;;
26690;SDS011;14307;51.718;8.938;2023-04-16T04:04:49;209.38;;;92.00;;
26690;SDS011;14307;51.718;8.938;2023-04-16T04:07:16;195.38;;;88.70;;
26690;SDS011;14307;51.718;8.938;2023-04-16T04:09:43;197.77;;;91.43;;
26690;SDS011;14307;51.718;8.938;2023-04-16T04:12:09;193.35;;;85.95;;
26690;SDS011;14307;51.718;8.938;2023-04-16T04:14:38;185.90;;;85.53;;
26690;SDS011;14307;51.718;8.938;2023-04-16T04:17:06;187.85;;;89.07;;
26690;SDS011;14307;51.718;8.938;2023-04-16T04:19:33;180.27;;;82.53;;
26690;SDS011;14307;51.718;8.938;2023-04-16T04:22:01;189.38;;;87.50;;
26690;SDS011;14307;51.718;8.938;2023-04-16T04:24:28;162.35;;;82.20;;
26690;SDS011;14307;51.718;8.938;2023-04-16T04:26:56;181.93;;;86.88;;
26690;SDS011;14307;51.718;8.938;2023-04-16T04:29:23;195.88;;;88.97;;
26690;SDS011;14307;51.718;8.938;2023-04-16T04:31:50;180.43;;;90.57;;
26690;SDS011;14307;51.718;8.938;2023-04-16T04:34:17;162.65;;;81.30;;
26690;SDS011;14307;51.718;8.938;2023-04-16T04:36:44;154.98;;;76.45;;
26690;SDS011;14307;51.718;8.938;2023-04-16T04:39:12;172.60;;;82.75;;
26690;SDS011;14307;51.718;8.938;2023-04-16T04:41:41;171.57;;;82.88;;
26690;SDS011;14307;51.718;8.938;2023-04-16T04:44:08;158.27;;;81.82;;
26690;SDS011;14307;51.718;8.938;2023-04-16T04:46:35;151.60;;;76.38;;
26690;SDS011;14307;51.718;8.938;2023-04-16T04:49:01;140.60;;;74.43;;
26690;SDS011;14307;51.718;8.938;2023-04-16T04:51:29;136.93;;;69.63;;
26690;SDS011;14307;51.718;8.938;2023-04-16T04:53:57;126.72;;;70.80;;
26690;SDS011;14307;51.718;8.938;2023-04-16T04:56:23;125.53;;;67.00;;
26690;SDS011;14307;51.718;8.938;2023-04-16T04:58:50;122.72;;;69.70;;
26690;SDS011;14307;51.718;8.938;2023-04-16T05:01:18;138.48;;;73.03;;
26690;SDS011;14307;51.718;8.938;2023-04-16T05:03:45;125.43;;;67.05;;
26690;SDS011;14307;51.718;8.938;2023-04-16T05:06:12;126.43;;;68.45;;
26690;SDS011;14307;51.718;8.938;2023-04-16T05:08:38;125.22;;;68.78;;
26690;SDS011;14307;51.718;8.938;2023-04-16T05:11:05;122.45;;;64.25;;
26690;SDS011;14307;51.718;8.938;2023-04-16T05:13:32;122.72;;;67.70;;
26690;SDS011;14307;51.718;8.938;2023-04-16T05:15:59;120.00;;;66.70;;
26690;SDS011;14307;51.718;8.938;2023-04-16T05:18:26;116.65;;;64.25;;
26690;SDS011;14307;51.718;8.938;2023-04-16T05:20:53;120.72;;;66.38;;
26690;SDS011;14307;51.718;8.938;2023-04-16T05:23:19;118.80;;;65.43;;
26690;SDS011;14307;51.718;8.938;2023-04-16T05:25:46;120.10;;;65.95;;
26690;SDS011;14307;51.718;8.938;2023-04-16T05:28:12;114.03;;;65.13;;
26690;SDS011;14307;51.718;8.938;2023-04-16T05:30:39;128.95;;;70.22;;
26690;SDS011;14307;51.718;8.938;2023-04-16T05:33:06;131.07;;;71.80;;
26690;SDS011;14307;51.718;8.938;2023-04-16T05:35:32;129.05;;;70.32;;
26690;SDS011;14307;51.718;8.938;2023-04-16T05:38:00;124.10;;;66.95;;
26690;SDS011;14307;51.718;8.938;2023-04-16T05:40:27;119.63;;;65.50;;
26690;SDS011;14307;51.718;8.938;2023-04-16T05:42:54;123.15;;;67.35;;
26690;SDS011;14307;51.718;8.938;2023-04-16T05:45:21;123.80;;;65.00;;
26690;SDS011;14307;51.718;8.938;2023-04-16T05:47:47;122.18;;;67.38;;
26690;SDS011;14307;51.718;8.938;2023-04-16T05:50:14;121.35;;;66.20;;
26690;SDS011;14307;51.718;8.938;2023-04-16T05:52:41;130.10;;;68.78;;
26690;SDS011;14307;51.718;8.938;2023-04-16T05:55:07;131.07;;;69.63;;
26690;SDS011;14307;51.718;8.938;2023-04-16T05:57:34;138.30;;;68.75;;
26690;SDS011;14307;51.718;8.938;2023-04-16T06:00:01;141.88;;;70.50;;
26690;SDS011;14307;51.718;8.938;2023-04-16T06:02:37;141.00;;;69.70;;
26690;SDS011;14307;51.718;8.938;2023-04-16T06:05:04;148.88;;;74.13;;
26690;SDS011;14307;51.718;8.938;2023-04-16T06:07:31;142.35;;;67.90;;
26690;SDS011;14307;51.718;8.938;2023-04-16T06:09:58;154.55;;;76.93;;
26690;SDS011;14307;51.718;8.938;2023-04-16T06:12:24;162.45;;;79.95;;
26690;SDS011;14307;51.718;8.938;2023-04-16T06:14:51;170.25;;;82.15;;
26690;SDS011;14307;51.718;8.938;2023-04-16T06:17:17;157.93;;;79.35;;
26690;SDS011;14307;51.718;8.938;2023-04-16T06:19:44;174.27;;;81.38;;
26690;SDS011;14307;51.718;8.938;2023-04-16T06:22:11;153.82;;;77.50;;
26690;SDS011;14307;51.718;8.938;2023-04-16T06:24:38;148.13;;;73.80;;
26690;SDS011;14307;51.718;8.938;2023-04-16T06:27:04;133.88;;;68.35;;
26690;SDS011;14307;51.718;8.938;2023-04-16T06:29:31;129.35;;;66.85;;
26690;SDS011;14307;51.718;8.938;2023-04-16T06:34:33;124.00;;;65.97;;
26690;SDS011;14307;51.718;8.938;2023-04-16T06:37:00;133.05;;;68.28;;
26690;SDS011;14307;51.718;8.938;2023-04-16T06:39:26;124.68;;;67.20;;
26690;SDS011;14307;51.718;8.938;2023-04-16T06:41:53;128.68;;;66.80;;
26690;SDS011;14307;51.718;8.938;2023-04-16T06:44:21;138.25;;;70.30;;
26690;SDS011;14307;51.718;8.938;2023-04-16T06:46:47;151.68;;;73.72;;
26690;SDS011;14307;51.718;8.938;2023-04-16T06:49:15;138.02;;;72.03;;
26690;SDS011;14307;51.718;8.938;2023-04-16T06:51:41;139.52;;;71.25;;
26690;SDS011;14307;51.718;8.938;2023-04-16T06:54:08;143.73;;;72.78;;
26690;SDS011;14307;51.718;8.938;2023-04-16T06:56:35;144.25;;;71.55;;
26690;SDS011;14307;51.718;8.938;2023-04-16T06:59:02;137.18;;;67.15;;
26690;SDS011;14307;51.718;8.938;2023-04-16T07:01:29;142.05;;;68.72;;
26690;SDS011;14307;51.718;8.938;2023-04-16T07:03:56;159.52;;;70.43;;
26690;SDS011;14307;51.718;8.938;2023-04-16T07:06:24;156.63;;;71.55;;
26690;SDS011;14307;51.718;8.938;2023-04-16T07:08:52;158.40;;;71.38;;
26690;SDS011;14307;51.718;8.938;2023-04-16T07:11:18;154.88;;;71.80;;
26690;SDS011;14307;51.718;8.938;2023-04-16T07:13:46;151.20;;;72.07;;
26690;SDS011;14307;51.718;8.938;2023-04-16T07:16:12;163.18;;;76.25;;
26690;SDS011;14307;51.718;8.938;2023-04-16T07:18:39;157.55;;;74.95;;
26690;SDS011;14307;51.718;8.938;2023-04-16T07:21:06;165.30;;;76.03;;
26690;SDS011;14307;51.718;8.938;2023-04-16T07:23:32;157.05;;;74.13;;
26690;SDS011;14307;51.718;8.938;2023-04-16T07:25:59;160.73;;;75.40;;
26690;SDS011;14307;51.718;8.938;2023-04-16T07:28:26;141.60;;;69.93;;
26690;SDS011;14307;51.718;8.938;2023-04-16T07:30:52;133.23;;;68.63;;
26690;SDS011;14307;51.718;8.938;2023-04-16T07:33:19;141.65;;;70.68;;
26690;SDS011;14307;51.718;8.938;2023-04-16T07:35:46;132.13;;;67.45;;
26690;SDS011;14307;51.718;8.938;2023-04-16T07:38:13;137.68;;;66.13;;
26690;SDS011;14307;51.718;8.938;2023-04-16T07:40:41;137.02;;;68.90;;
26690;SDS011;14307;51.718;8.938;2023-04-16T07:43:08;132.18;;;66.57;;
26690;SDS011;14307;51.718;8.938;2023-04-16T07:45:35;133.05;;;66.93;;
26690;SDS011;14307;51.718;8.938;2023-04-16T07:48:01;132.55;;;65.65;;
26690;SDS011;14307;51.718;8.938;2023-04-16T07:50:28;119.28;;;62.75;;
26690;SDS011;14307;51.718;8.938;2023-04-16T07:52:55;114.00;;;63.13;;
26690;SDS011;14307;51.718;8.938;2023-04-16T07:55:22;121.18;;;59.53;;
26690;SDS011;14307;51.718;8.938;2023-04-16T07:57:49;109.13;;;56.10;;
26690;SDS011;14307;51.718;8.938;2023-04-16T08:00:16;107.25;;;58.35;;
26690;SDS011;14307;51.718;8.938;2023-04-16T08:02:43;96.43;;;53.00;;
26690;SDS011;14307;51.718;8.938;2023-04-16T08:05:10;102.40;;;53.95;;
26690;SDS011;14307;51.718;8.938;2023-04-16T08:07:37;91.95;;;50.88;;
26690;SDS011;14307;51.718;8.938;2023-04-16T08:10:04;86.50;;;49.25;;
26690;SDS011;14307;51.718;8.938;2023-04-16T08:12:31;79.28;;;44.58;;
26690;SDS011;14307;51.718;8.938;2023-04-16T08:14:58;77.00;;;43.05;;
26690;SDS011;14307;51.718;8.938;2023-04-16T08:17:25;65.90;;;40.85;;
26690;SDS011;14307;51.718;8.938;2023-04-16T08:19:53;68.60;;;38.85;;
26690;SDS011;14307;51.718;8.938;2023-04-16T08:22:20;64.85;;;39.95;;
26690;SDS011;14307;51.718;8.938;2023-04-16T08:24:47;68.88;;;40.80;;
26690;SDS011;14307;51.718;8.938;2023-04-16T08:27:14;59.78;;;37.75;;
26690;SDS011;14307;51.718;8.938;2023-04-16T08:29:45;58.85;;;36.20;;
26690;SDS011;14307;51.718;8.938;2023-04-16T08:32:12;59.67;;;38.17;;
26690;SDS011;14307;51.718;8.938;2023-04-16T08:34:39;51.95;;;31.65;;
26690;SDS011;14307;51.718;8.938;2023-04-16T08:37:07;60.42;;;38.85;;
26690;SDS011;14307;51.718;8.938;2023-04-16T08:39:34;49.15;;;33.65;;
26690;SDS011;14307;51.718;8.938;2023-04-16T08:42:01;49.65;;;32.97;;
26690;SDS011;14307;51.718;8.938;2023-04-16T08:44:31;49.30;;;34.13;;
26690;SDS011;14307;51.718;8.938;2023-04-16T08:47:00;52.45;;;32.58;;
26690;SDS011;14307;51.718;8.938;2023-04-16T08:49:28;50.70;;;35.00;;
26690;SDS011;14307;51.718;8.938;2023-04-16T08:51:55;52.35;;;33.85;;
26690;SDS011;14307;51.718;8.938;2023-04-16T08:57:09;49.92;;;33.72;;
26690;SDS011;14307;51.718;8.938;2023-04-16T08:59:37;49.60;;;34.33;;
26690;SDS011;14307;51.718;8.938;2023-04-16T09:02:05;47.90;;;33.63;;
26690;SDS011;14307;51.718;8.938;2023-04-16T09:04:32;46.97;;;33.08;;
26690;SDS011;14307;51.718;8.938;2023-04-16T09:06:59;47.33;;;34.33;;
26690;SDS011;14307;51.718;8.938;2023-04-16T09:09:29;46.83;;;34.95;;
26690;SDS011;14307;51.718;8.938;2023-04-16T09:11:59;44.78;;;32.95;;
26690;SDS011;14307;51.718;8.938;2023-04-16T09:14:26;48.58;;;35.33;;
26690;SDS011;14307;51.718;8.938;2023-04-16T09:16:53;45.90;;;36.60;;
26690;SDS011;14307;51.718;8.938;2023-04-16T09:19:20;44.70;;;33.70;;
26690;SDS011;14307;51.718;8.938;2023-04-16T09:21:48;40.08;;;30.45;;
26690;SDS011;14307;51.718;8.938;2023-04-16T09:24:15;43.17;;;32.60;;
26690;SDS011;14307;51.718;8.938;2023-04-16T09:26:42;43.58;;;34.13;;
26690;SDS011;14307;51.718;8.938;2023-04-16T09:29:09;42.65;;;33.72;;
26690;SDS011;14307;51.718;8.938;2023-04-16T09:31:36;46.17;;;34.20;;
26690;SDS011;14307;51.718;8.938;2023-04-16T09:34:05;43.08;;;36.58;;
26690;SDS011;14307;51.718;8.938;2023-04-16T09:36:33;47.65;;;36.42;;
26690;SDS011;14307;51.718;8.938;2023-04-16T09:39:01;41.63;;;34.35;;
26690;SDS011;14307;51.718;8.938;2023-04-16T09:41:29;44.70;;;35.42;;
26690;SDS011;14307;51.718;8.938;2023-04-16T09:44:01;49.85;;;36.83;;
26690;SDS011;14307;51.718;8.938;2023-04-16T09:46:30;44.28;;;36.17;;
26690;SDS011;14307;51.718;8.938;2023-04-16T09:49:08;46.13;;;36.75;;
26690;SDS011;14307;51.718;8.938;2023-04-16T09:51:42;43.75;;;36.40;;
26690;SDS011;14307;51.718;8.938;2023-04-16T09:54:10;45.63;;;39.13;;
26690;SDS011;14307;51.718;8.938;2023-04-16T09:56:43;48.22;;;36.92;;
26690;SDS011;14307;51.718;8.938;2023-04-16T09:59:21;43.97;;;37.08;;
26690;SDS011;14307;51.718;8.938;2023-04-16T10:01:48;47.90;;;36.95;;
26690;SDS011;14307;51.718;8.938;2023-04-16T10:04:22;47.22;;;37.75;;
26690;SDS011;14307;51.718;8.938;2023-04-16T10:07:02;47.20;;;37.08;;
26690;SDS011;14307;51.718;8.938;2023-04-16T10:09:36;45.05;;;36.63;;
26690;SDS011;14307;51.718;8.938;2023-04-16T10:12:04;46.60;;;36.95;;
26690;SDS011;14307;51.718;8.938;2023-04-16T10:14:31;45.67;;;36.50;;
26690;SDS011;14307;51.718;8.938;2023-04-16T10:17:02;47.83;;;38.25;;
26690;SDS011;14307;51.718;8.938;2023-04-16T10:19:29;43.65;;;37.92;;
26690;SDS011;14307;51.718;8.938;2023-04-16T10:21:57;43.70;;;38.38;;
26690;SDS011;14307;51.718;8.938;2023-04-16T10:24:24;44.28;;;39.08;;
26690;SDS011;14307;51.718;8.938;2023-04-16T10:26:51;43.45;;;38.72;;
26690;SDS011;14307;51.718;8.938;2023-04-16T10:29:21;54.05;;;43.08;;
26690;SDS011;14307;51.718;8.938;2023-04-16T10:31:48;52.55;;;40.72;;
26690;SDS011;14307;51.718;8.938;2023-04-16T10:34:16;51.78;;;40.78;;
26690;SDS011;14307;51.718;8.938;2023-04-16T10:36:45;49.58;;;40.65;;
26690;SDS011;14307;51.718;8.938;2023-04-16T10:39:16;55.13;;;41.70;;
26690;SDS011;14307;51.718;8.938;2023-04-16T10:41:47;53.25;;;43.92;;
26690;SDS011;14307;51.718;8.938;2023-04-16T10:44:18;47.67;;;41.90;;
26690;SDS011;14307;51.718;8.938;2023-04-16T10:46:45;54.20;;;42.88;;
26690;SDS011;14307;51.718;8.938;2023-04-16T10:51:59;51.88;;;39.42;;
26690;SDS011;14307;51.718;8.938;2023-04-16T10:54:34;50.92;;;41.60;;
26690;SDS011;14307;51.718;8.938;2023-04-16T10:57:05;52.08;;;42.03;;
26690;SDS011;14307;51.718;8.938;2023-04-16T10:59:34;45.58;;;40.03;;
26690;SDS011;14307;51.718;8.938;2023-04-16T11:02:06;50.80;;;44.00;;
26690;SDS011;14307;51.718;8.938;2023-04-16T11:04:37;44.95;;;40.20;;
26690;SDS011;14307;51.718;8.938;2023-04-16T11:07:14;43.55;;;39.08;;
26690;SDS011;14307;51.718;8.938;2023-04-16T11:12:19;48.78;;;43.55;;
26690;SDS011;14307;51.718;8.938;2023-04-16T11:17:15;47.10;;;41.95;;
26690;SDS011;14307;51.718;8.938;2023-04-16T11:19:42;47.78;;;42.80;;
26690;SDS011;14307;51.718;8.938;2023-04-16T11:22:13;45.60;;;40.47;;
26690;SDS011;14307;51.718;8.938;2023-04-16T11:24:44;45.92;;;41.00;;
26690;SDS011;14307;51.718;8.938;2023-04-16T11:27:14;53.10;;;41.58;;
26690;SDS011;14307;51.718;8.938;2023-04-16T11:29:41;47.97;;;41.15;;
26690;SDS011;14307;51.718;8.938;2023-04-16T11:32:18;46.92;;;42.15;;
26690;SDS011;14307;51.718;8.938;2023-04-16T11:34:46;47.65;;;42.63;;
26690;SDS011;14307;51.718;8.938;2023-04-16T11:37:13;46.28;;;41.55;;
26690;SDS011;14307;51.718;8.938;2023-04-16T11:39:46;44.63;;;39.72;;
26690;SDS011;14307;51.718;8.938;2023-04-16T11:42:18;46.03;;;41.15;;
26690;SDS011;14307;51.718;8.938;2023-04-16T11:44:54;45.55;;;40.67;;
26690;SDS011;14307;51.718;8.938;2023-04-16T11:47:22;44.75;;;39.90;;
26690;SDS011;14307;51.718;8.938;2023-04-16T11:49:50;43.90;;;39.58;;
26690;SDS011;14307;51.718;8.938;2023-04-16T11:52:30;44.70;;;39.97;;
26690;SDS011;14307;51.718;8.938;2023-04-16T11:54:58;45.25;;;40.70;;
26690;SDS011;14307;51.718;8.938;2023-04-16T11:57:28;44.70;;;40.22;;
26690;SDS011;14307;51.718;8.938;2023-04-16T11:59:57;44.50;;;40.00;;
26690;SDS011;14307;51.718;8.938;2023-04-16T12:05:07;43.42;;;38.65;;
26690;SDS011;14307;51.718;8.938;2023-04-16T12:07:53;41.50;;;36.70;;
26690;SDS011;14307;51.718;8.938;2023-04-16T12:10:20;42.50;;;37.58;;
26690;SDS011;14307;51.718;8.938;2023-04-16T12:12:47;43.67;;;39.03;;
26690;SDS011;14307;51.718;8.938;2023-04-16T12:15:14;43.72;;;39.08;;
26690;SDS011;14307;51.718;8.938;2023-04-16T12:17:41;45.00;;;40.28;;
26690;SDS011;14307;51.718;8.938;2023-04-16T12:20:11;44.63;;;39.83;;
26690;SDS011;14307;51.718;8.938;2023-04-16T12:22:44;43.33;;;38.90;;
26690;SDS011;14307;51.718;8.938;2023-04-16T12:25:13;46.03;;;41.33;;
26690;SDS011;14307;51.718;8.938;2023-04-16T12:27:51;44.83;;;40.25;;
26690;SDS011;14307;51.718;8.938;2023-04-16T12:30:21;43.78;;;39.13;;
26690;SDS011;14307;51.718;8.938;2023-04-16T12:32:50;44.65;;;40.08;;
26690;SDS011;14307;51.718;8.938;2023-04-16T12:35:31;43.88;;;39.17;;
26690;SDS011;14307;51.718;8.938;2023-04-16T12:37:59;43.83;;;39.05;;
26690;SDS011;14307;51.718;8.938;2023-04-16T12:40:26;45.17;;;39.38;;
26690;SDS011;14307;51.718;8.938;2023-04-16T12:42:53;46.97;;;41.47;;
26690;SDS011;14307;51.718;8.938;2023-04-16T12:45:20;48.15;;;40.83;;
26690;SDS011;14307;51.718;8.938;2023-04-16T12:47:47;46.78;;;40.53;;
26690;SDS011;14307;51.718;8.938;2023-04-16T12:50:15;48.22;;;41.15;;
26690;SDS011;14307;51.718;8.938;2023-04-16T12:52:42;46.47;;;41.03;;
26690;SDS011;14307;51.718;8.938;2023-04-16T12:55:09;49.92;;;41.65;;
26690;SDS011;14307;51.718;8.938;2023-04-16T12:57:36;48.67;;;39.72;;
26690;SDS011;14307;51.718;8.938;2023-04-16T13:00:03;50.05;;;42.15;;
26690;SDS011;14307;51.718;8.938;2023-04-16T13:02:31;49.95;;;42.50;;
26690;SDS011;14307;51.718;8.938;2023-04-16T13:05:00;47.80;;;40.22;;
26690;SDS011;14307;51.718;8.938;2023-04-16T13:07:27;54.33;;;43.22;;
26690;SDS011;14307;51.718;8.938;2023-04-16T13:09:56;56.03;;;41.45;;
26690;SDS011;14307;51.718;8.938;2023-04-16T13:12:23;58.10;;;42.03;;
26690;SDS011;14307;51.718;8.938;2023-04-16T13:14:50;51.40;;;41.05;;
26690;SDS011;14307;51.718;8.938;2023-04-16T13:17:16;53.92;;;42.33;;
26690;SDS011;14307;51.718;8.938;2023-04-16T13:19:43;60.17;;;41.28;;
26690;SDS011;14307;51.718;8.938;2023-04-16T13:22:10;52.45;;;40.20;;
26690;SDS011;14307;51.718;8.938;2023-04-16T13:24:37;51.50;;;40.53;;
26690;SDS011;14307;51.718;8.938;2023-04-16T13:27:04;50.42;;;41.08;;
26690;SDS011;14307;51.718;8.938;2023-04-16T13:29:33;50.83;;;38.92;;
26690;SDS011;14307;51.718;8.938;2023-04-16T13:32:01;49.38;;;40.90;;
26690;SDS011;14307;51.718;8.938;2023-04-16T13:34:29;50.30;;;40.38;;
26690;SDS011;14307;51.718;8.938;2023-04-16T13:36:56;42.63;;;37.40;;
26690;SDS011;14307;51.718;8.938;2023-04-16T13:39:23;44.58;;;37.08;;
26690;SDS011;14307;51.718;8.938;2023-04-16T13:41:50;45.90;;;36.55;;
26690;SDS011;14307;51.718;8.938;2023-04-16T13:44:17;47.45;;;36.38;;
26690;SDS011;14307;51.718;8.938;2023-04-16T13:46:43;46.53;;;35.70;;
26690;SDS011;14307;51.718;8.938;2023-04-16T13:49:13;45.42;;;36.00;;
26690;SDS011;14307;51.718;8.938;2023-04-16T13:51:41;47.20;;;34.63;;
26690;SDS011;14307;51.718;8.938;2023-04-16T13:54:09;42.00;;;35.05;;
26690;SDS011;14307;51.718;8.938;2023-04-16T13:56:36;37.40;;;33.35;;
26690;SDS011;14307;51.718;8.938;2023-04-16T13:59:05;39.53;;;33.15;;
26690;SDS011;14307;51.718;8.938;2023-04-16T14:01:32;42.40;;;33.60;;
26690;SDS011;14307;51.718;8.938;2023-04-16T14:03:59;42.70;;;33.78;;
26690;SDS011;14307;51.718;8.938;2023-04-16T14:06:31;41.58;;;33.15;;
26690;SDS011;14307;51.718;8.938;2023-04-16T14:08:59;44.75;;;33.70;;
26690;SDS011;14307;51.718;8.938;2023-04-16T14:11:26;42.13;;;31.55;;
26690;SDS011;14307;51.718;8.938;2023-04-16T14:13:53;44.45;;;35.15;;
26690;SDS011;14307;51.718;8.938;2023-04-16T14:16:20;37.53;;;31.40;;
26690;SDS011;14307;51.718;8.938;2023-04-16T14:18:46;39.17;;;34.03;;
26690;SDS011;14307;51.718;8.938;2023-04-16T14:21:13;39.13;;;34.85;;
26690;SDS011;14307;51.718;8.938;2023-04-16T14:23:40;36.60;;;32.70;;
26690;SDS011;14307;51.718;8.938;2023-04-16T14:26:07;41.05;;;34.78;;
26690;SDS011;14307;51.718;8.938;2023-04-16T14:28:34;40.85;;;33.72;;
26690;SDS011;14307;51.718;8.938;2023-04-16T14:31:01;43.97;;;36.13;;
26690;SDS011;14307;51.718;8.938;2023-04-16T14:33:28;37.28;;;33.28;;